Stonyford, California
Current Conditions -  °F | °C
As of 11:56 PM on Wednesday 22 Oct 2014 (Local Time) from KUKI Reporting Station
Clear Clear  
Wind Chill: 60°   Ceiling: Unl
Heat Index: 60°   Visibility: 10mi
Dew Point: 53°   Wind: 5mph
Humidity: 78%   Direction: 320°NW
Pressure: 30.05"   Gusts: NA
Location:  39.37°N, 122.55°W
Report Text: KUKI 230656Z AUTO 32004KT 10SM CLR 16/12 A3005 RMK AO2 SLP169 T01560117
Loading
Personal Weather Stations






























Interactive Weather Map
Tropical Storm Tracking
New forecast layout! Learn more

10-Day Weather Forecast

Advertisements
Track Severe Weather on mobile